createdAt,value
2023-02-11T00:00:13.572Z,6.90
2023-02-11T00:03:16.682Z,7.00
2023-02-11T00:06:19.656Z,6.90
2023-02-11T00:09:22.786Z,7.00
2023-02-11T00:12:27.380Z,7.00
2023-02-11T00:15:30.474Z,6.90
2023-02-11T00:18:33.438Z,6.90
2023-02-11T00:21:36.482Z,7.00
2023-02-11T00:24:39.422Z,7.00
2023-02-11T00:27:43.794Z,7.00
2023-02-11T00:30:46.914Z,7.00
2023-02-11T00:33:50.622Z,6.90
2023-02-11T00:36:55.018Z,6.90
2023-02-11T00:39:57.968Z,6.90
2023-02-11T00:43:02.220Z,6.90
2023-02-11T00:46:05.500Z,7.00
2023-02-11T00:49:08.522Z,6.90
2023-02-11T00:52:11.505Z,6.90
2023-02-11T00:55:14.576Z,6.90
2023-02-11T00:58:18.839Z,6.80
2023-02-11T01:01:22.134Z,6.80
2023-02-11T01:04:25.300Z,6.80
2023-02-11T01:07:28.607Z,6.70
2023-02-11T01:10:31.671Z,6.70
2023-02-11T01:13:37.104Z,6.70
2023-02-11T01:16:41.255Z,6.70
2023-02-11T01:19:44.421Z,6.70
2023-02-11T01:22:47.391Z,6.80
2023-02-11T01:25:51.143Z,6.70
2023-02-11T01:28:55.611Z,6.70
2023-02-11T01:31:58.670Z,6.80
2023-02-11T01:35:01.677Z,6.80
2023-02-11T01:38:04.625Z,6.80
2023-02-11T01:41:09.886Z,6.80
2023-02-11T01:44:38.206Z,6.80
2023-02-11T01:47:41.166Z,6.80
2023-02-11T01:50:45.980Z,6.90
2023-02-11T01:54:08.240Z,6.90
2023-02-11T01:57:23.035Z,6.90
2023-02-11T02:00:31.588Z,6.90
2023-02-11T02:03:37.416Z,6.90
2023-02-11T02:06:46.894Z,6.90
2023-02-11T02:09:55.921Z,6.90
2023-02-11T02:12:58.890Z,6.80
2023-02-11T02:16:07.200Z,6.80
2023-02-11T02:19:40.009Z,6.80
2023-02-11T02:23:04.435Z,6.90
2023-02-11T02:26:33.803Z,6.80
2023-02-11T02:30:02.815Z,6.90
2023-02-11T02:33:45.377Z,6.90
2023-02-11T02:36:55.561Z,6.90
2023-02-11T02:40:04.191Z,6.90
2023-02-11T02:43:09.982Z,7.00
2023-02-11T02:46:15.211Z,7.00
2023-02-11T02:49:19.538Z,7.00
2023-02-11T02:52:35.336Z,7.10
2023-02-11T02:55:53.472Z,7.10
2023-02-11T02:59:13.264Z,7.10
2023-02-11T03:02:23.347Z,7.20
2023-02-11T03:05:37.129Z,7.20
2023-02-11T03:08:44.808Z,7.20
2023-02-11T03:11:47.757Z,7.20
2023-02-11T03:14:53.001Z,7.10
2023-02-11T03:17:59.309Z,7.10
2023-02-11T03:21:06.208Z,7.10
2023-02-11T03:24:15.074Z,7.10
2023-02-11T03:27:22.966Z,7.10
2023-02-11T03:30:31.177Z,7.10
2023-02-11T03:33:39.720Z,7.10
2023-02-11T03:36:49.329Z,7.10
2023-02-11T03:39:56.496Z,7.10
2023-02-11T03:43:04.070Z,7.20
2023-02-11T03:46:08.204Z,7.20
2023-02-11T03:49:14.374Z,7.20
2023-02-11T03:52:20.928Z,7.30
2023-02-11T03:55:25.848Z,7.30
2023-02-11T03:58:28.878Z,7.30
2023-02-11T04:01:32.246Z,7.30
2023-02-11T04:04:35.272Z,7.40
2023-02-11T04:07:39.561Z,7.40
2023-02-11T04:10:42.488Z,7.40
2023-02-11T04:13:45.408Z,7.40
2023-02-11T04:16:51.066Z,7.50
2023-02-11T04:19:54.004Z,7.60
2023-02-11T04:22:58.311Z,7.60
2023-02-11T04:26:01.240Z,7.70
2023-02-11T04:29:04.230Z,7.70
2023-02-11T04:32:07.219Z,7.70
2023-02-11T04:35:10.195Z,7.80
2023-02-11T04:38:15.162Z,7.80
2023-02-11T04:41:18.077Z,7.80
2023-02-11T04:44:21.029Z,7.80
2023-02-11T04:47:23.992Z,7.90
2023-02-11T04:50:26.949Z,7.80
2023-02-11T04:53:31.287Z,7.80
2023-02-11T04:56:34.321Z,7.90
2023-02-11T04:59:37.354Z,7.90
2023-02-11T05:02:40.305Z,7.90
2023-02-11T05:05:43.855Z,8.00
2023-02-11T05:08:48.163Z,8.00
2023-02-11T05:11:51.246Z,7.90
2023-02-11T05:14:54.228Z,8.00
2023-02-11T05:17:57.370Z,7.90
2023-02-11T05:21:00.438Z,7.80
2023-02-11T05:24:05.381Z,7.80
2023-02-11T05:27:08.425Z,7.80
2023-02-11T05:30:12.565Z,7.90
2023-02-11T05:33:15.557Z,7.80
2023-02-11T05:36:18.573Z,7.80
2023-02-11T05:39:23.035Z,7.80
2023-02-11T05:42:26.001Z,7.80
2023-02-11T05:45:29.218Z,7.80
2023-02-11T05:48:32.606Z,7.80
2023-02-11T05:51:35.525Z,7.80
2023-02-11T05:54:39.839Z,7.80
2023-02-11T05:57:42.979Z,7.90
2023-02-11T06:00:45.921Z,7.90
2023-02-11T06:03:50.008Z,7.90
2023-02-11T06:06:52.968Z,7.90
2023-02-11T06:09:57.541Z,7.90
2023-02-11T06:13:00.458Z,8.00
2023-02-11T06:16:04.107Z,8.00
2023-02-11T06:19:07.055Z,8.00
2023-02-11T06:22:09.976Z,8.00
2023-02-11T06:25:14.952Z,8.00
2023-02-11T06:28:19.350Z,8.00
2023-02-11T06:31:22.438Z,8.00
2023-02-11T06:34:25.448Z,8.00
2023-02-11T06:37:28.523Z,8.00
2023-02-11T06:40:32.797Z,8.10
2023-02-11T06:43:35.746Z,8.10
2023-02-11T06:46:38.743Z,8.10
2023-02-11T06:49:41.709Z,8.20
2023-02-11T06:52:44.636Z,8.20
2023-02-11T06:55:49.153Z,8.20
2023-02-11T06:58:54.600Z,8.20
2023-02-11T07:01:57.631Z,8.10
2023-02-11T07:05:00.795Z,8.10
2023-02-11T07:08:03.755Z,8.10
2023-02-11T07:11:12.363Z,8.10
2023-02-11T07:14:15.345Z,8.10
2023-02-11T07:17:18.275Z,8.10
2023-02-11T07:20:21.258Z,8.10
2023-02-11T07:23:24.186Z,8.10
2023-02-11T07:26:29.173Z,8.10
2023-02-11T07:29:32.177Z,8.10
2023-02-11T07:32:35.111Z,8.10
2023-02-11T07:35:38.072Z,8.10
2023-02-11T07:38:41.720Z,8.10
2023-02-11T07:41:47.753Z,8.10
2023-02-11T07:44:50.798Z,8.10
2023-02-11T07:47:53.751Z,8.10
2023-02-11T07:50:56.910Z,8.10
2023-02-11T07:54:00.961Z,8.10
2023-02-11T07:57:05.383Z,8.10
2023-02-11T08:00:09.160Z,8.10
2023-02-11T08:03:12.094Z,8.10
2023-02-11T08:06:16.756Z,8.20
2023-02-11T08:09:19.726Z,8.20
2023-02-11T08:12:24.033Z,8.20
2023-02-11T08:15:27.099Z,8.20
2023-02-11T08:18:30.449Z,8.30
2023-02-11T08:21:33.443Z,8.30
2023-02-11T08:24:36.420Z,8.30
2023-02-11T08:27:40.718Z,8.30
2023-02-11T08:30:43.665Z,8.30
2023-02-11T08:33:47.086Z,8.30
2023-02-11T08:36:50.043Z,8.30
2023-02-11T08:39:52.989Z,8.30
2023-02-11T08:42:57.290Z,8.40
2023-02-11T08:46:02.133Z,8.40
2023-02-11T08:49:05.546Z,8.40
2023-02-11T08:52:08.492Z,8.40
2023-02-11T08:55:11.510Z,8.40
2023-02-11T08:58:18.151Z,8.40
2023-02-11T09:01:25.653Z,8.40
2023-02-11T09:04:28.883Z,8.30
2023-02-11T09:07:31.910Z,8.40
2023-02-11T09:10:35.225Z,8.40
2023-02-11T09:13:41.146Z,8.50
2023-02-11T09:16:44.510Z,8.50
2023-02-11T09:19:47.440Z,8.50
2023-02-11T09:22:50.459Z,8.50
2023-02-11T09:25:53.570Z,8.50
2023-02-11T09:28:57.895Z,8.60
2023-02-11T09:32:00.977Z,8.60
2023-02-11T09:35:04.333Z,8.60
2023-02-11T09:38:07.313Z,8.60
2023-02-11T09:41:45.699Z,8.60
2023-02-11T09:44:50.630Z,8.70
2023-02-11T09:47:57.026Z,8.80
2023-02-11T09:51:02.411Z,8.70
2023-02-11T09:54:12.469Z,8.80
2023-02-11T09:57:27.895Z,8.80
2023-02-11T10:00:40.363Z,8.90
2023-02-11T10:03:56.774Z,8.90
2023-02-11T10:07:08.494Z,8.90
2023-02-11T10:10:21.858Z,8.90
2023-02-11T10:13:44.745Z,8.90
2023-02-11T10:17:01.839Z,8.90
2023-02-11T10:20:19.049Z,8.90
2023-02-11T10:23:25.806Z,9.00
2023-02-11T10:26:31.810Z,9.00
2023-02-11T10:29:42.504Z,9.00
2023-02-11T10:32:50.441Z,9.00
2023-02-11T10:35:53.480Z,9.00
2023-02-11T10:38:56.464Z,9.00
2023-02-11T10:42:03.897Z,9.00
2023-02-11T10:45:08.285Z,9.00
2023-02-11T10:48:40.860Z,8.90
2023-02-11T10:51:43.813Z,8.90
2023-02-11T10:55:02.992Z,8.90
2023-02-11T10:58:06.624Z,8.90
2023-02-11T11:01:23.505Z,8.90
2023-02-11T11:04:41.650Z,8.90
2023-02-11T11:07:54.080Z,8.90
2023-02-11T11:11:07.225Z,8.90
2023-02-11T11:14:20.435Z,8.90
2023-02-11T11:17:23.435Z,9.00
2023-02-11T11:20:32.006Z,8.90
2023-02-11T11:23:37.440Z,8.90
2023-02-11T11:26:42.908Z,8.90
2023-02-11T11:29:48.913Z,9.00
2023-02-11T11:32:51.975Z,9.00
2023-02-11T11:36:01.673Z,9.00
2023-02-11T11:39:18.336Z,9.00
2023-02-11T11:42:27.742Z,9.00
2023-02-11T11:45:31.090Z,9.00
2023-02-11T11:48:38.393Z,9.00
2023-02-11T11:51:46.238Z,9.00
2023-02-11T11:54:59.927Z,9.00
2023-02-11T11:58:03.141Z,9.00
2023-02-11T12:01:24.373Z,9.10
2023-02-11T12:04:43.499Z,9.10
2023-02-11T12:08:00.982Z,9.10
2023-02-11T12:11:11.695Z,9.20
2023-02-11T12:14:25.064Z,9.20
2023-02-11T12:17:47.338Z,9.20
2023-02-11T12:21:09.370Z,9.30
2023-02-11T12:24:35.475Z,9.20
2023-02-11T12:27:49.375Z,9.20
2023-02-11T12:31:06.248Z,9.20
2023-02-11T12:34:34.162Z,9.20
2023-02-11T12:37:53.641Z,9.20
2023-02-11T12:41:11.421Z,9.30
2023-02-11T12:44:24.439Z,9.30
2023-02-11T12:47:34.586Z,9.30
2023-02-11T12:50:46.025Z,9.30
2023-02-11T12:54:07.539Z,9.30
2023-02-11T12:57:19.303Z,9.30
2023-02-11T13:00:25.573Z,9.30
2023-02-11T13:03:35.948Z,9.20
2023-02-11T13:06:43.162Z,9.30
2023-02-11T13:09:52.592Z,9.30
2023-02-11T13:13:17.839Z,9.30
2023-02-11T13:16:37.582Z,9.30
2023-02-11T13:19:46.959Z,9.40
2023-02-11T13:22:57.229Z,9.30
2023-02-11T13:26:06.537Z,9.30
2023-02-11T13:29:22.054Z,9.30
2023-02-11T13:32:24.992Z,9.30
2023-02-11T13:35:30.288Z,9.40
2023-02-11T13:38:33.962Z,9.30
2023-02-11T13:41:40.439Z,9.30
2023-02-11T13:44:44.793Z,9.40
2023-02-11T13:47:52.393Z,9.30
2023-02-11T13:50:58.623Z,9.40
2023-02-11T13:54:02.381Z,9.50
2023-02-11T13:57:33.721Z,9.50
2023-02-11T14:00:49.661Z,9.50
2023-02-11T14:04:36.372Z,9.50
2023-02-11T14:07:56.655Z,9.50
2023-02-11T14:11:01.420Z,9.50
2023-02-11T14:14:16.675Z,9.40
2023-02-11T14:17:30.934Z,9.50
2023-02-11T14:20:37.770Z,9.40
2023-02-11T14:23:41.757Z,9.40
2023-02-11T14:26:51.793Z,9.40
2023-02-11T14:30:10.535Z,9.40
2023-02-11T14:33:42.727Z,9.30
2023-02-11T14:37:06.756Z,9.30
2023-02-11T14:40:19.645Z,9.30
2023-02-11T14:43:29.543Z,9.30
2023-02-11T14:46:34.412Z,9.30
2023-02-11T14:49:41.365Z,9.30
2023-02-11T14:52:45.254Z,9.20
2023-02-11T14:55:50.405Z,9.20
2023-02-11T14:58:54.367Z,9.20
2023-02-11T15:01:58.557Z,9.20
2023-02-11T15:05:21.940Z,9.10
2023-02-11T15:08:25.132Z,9.10
2023-02-11T15:11:30.837Z,9.00
2023-02-11T15:14:35.761Z,9.00
2023-02-11T15:17:38.845Z,8.90
2023-02-11T15:20:43.223Z,8.90
2023-02-11T15:23:57.093Z,8.90
2023-02-11T15:27:02.121Z,8.80
2023-02-11T15:30:25.041Z,8.80
2023-02-11T15:33:30.197Z,8.80
2023-02-11T15:36:36.237Z,8.70
2023-02-11T15:39:41.508Z,8.70
2023-02-11T15:42:56.824Z,8.70
2023-02-11T15:46:02.747Z,8.60
2023-02-11T15:49:08.016Z,8.60
2023-02-11T15:52:14.089Z,8.60
2023-02-11T15:55:18.388Z,8.60
2023-02-11T15:58:22.719Z,8.50
2023-02-11T16:01:34.286Z,8.50
2023-02-11T16:04:38.304Z,8.50
2023-02-11T16:07:45.596Z,8.40
2023-02-11T16:10:58.433Z,8.40
2023-02-11T16:14:05.822Z,8.40
2023-02-11T16:17:13.099Z,8.40
2023-02-11T16:20:20.075Z,8.40
2023-02-11T16:23:28.257Z,8.40
2023-02-11T16:26:35.318Z,8.40
2023-02-11T16:29:38.635Z,8.40
2023-02-11T16:32:41.563Z,8.30
2023-02-11T16:35:47.535Z,8.40
2023-02-11T16:38:51.813Z,8.40
2023-02-11T16:41:55.790Z,8.40
2023-02-11T16:44:59.752Z,8.40
2023-02-11T16:48:03.005Z,8.40
2023-02-11T16:51:09.137Z,8.40
2023-02-11T16:54:17.069Z,8.40
2023-02-11T16:57:22.069Z,8.40
2023-02-11T17:00:25.535Z,8.40
2023-02-11T17:03:30.184Z,8.40
2023-02-11T17:06:34.760Z,8.40
2023-02-11T17:09:39.286Z,8.40
2023-02-11T17:12:42.229Z,8.50
2023-02-11T17:15:45.183Z,8.50
2023-02-11T17:18:48.438Z,8.50
2023-02-11T17:21:53.429Z,8.40
2023-02-11T17:24:58.272Z,8.40
2023-02-11T17:28:01.292Z,8.40
2023-02-11T17:31:09.276Z,8.40
2023-02-11T17:34:12.914Z,8.40
2023-02-11T17:37:16.152Z,8.40
2023-02-11T17:40:20.785Z,8.40
2023-02-11T17:43:23.733Z,8.40
2023-02-11T17:46:28.145Z,8.40
2023-02-11T17:49:31.245Z,8.40
2023-02-11T17:52:34.210Z,8.40
2023-02-11T17:55:38.771Z,8.40
2023-02-11T17:58:41.724Z,8.40
2023-02-11T18:01:45.205Z,8.40
2023-02-11T18:04:48.328Z,8.40
2023-02-11T18:07:51.353Z,8.40
2023-02-11T18:10:55.645Z,8.40
2023-02-11T18:13:59.878Z,8.40
2023-02-11T18:17:02.829Z,8.40
2023-02-11T18:20:07.234Z,8.40
2023-02-11T18:23:10.676Z,8.40
2023-02-11T18:26:17.730Z,8.40
2023-02-11T18:29:20.661Z,8.40
2023-02-11T18:32:23.643Z,8.40
2023-02-11T18:35:26.606Z,8.40
2023-02-11T18:38:29.526Z,8.50
2023-02-11T18:41:33.978Z,8.40
2023-02-11T18:44:37.857Z,8.40
2023-02-11T18:47:41.384Z,8.40
2023-02-11T18:50:44.821Z,8.50
2023-02-11T18:53:48.014Z,8.40
2023-02-11T18:56:52.352Z,8.40
2023-02-11T18:59:55.314Z,8.40
2023-02-11T19:02:58.533Z,8.40
2023-02-11T19:06:01.444Z,8.40
2023-02-11T19:09:09.240Z,8.50
2023-02-11T19:12:14.397Z,8.50
2023-02-11T19:15:17.492Z,8.50
2023-02-11T19:18:20.441Z,8.50
2023-02-11T19:21:23.373Z,8.50
2023-02-11T19:24:27.378Z,8.60
2023-02-11T19:27:31.680Z,8.60
2023-02-11T19:30:36.773Z,8.60
2023-02-11T19:33:39.833Z,8.50
2023-02-11T19:36:43.026Z,8.60
2023-02-11T19:39:46.120Z,8.50
2023-02-11T19:42:50.447Z,8.60
2023-02-11T19:45:56.171Z,8.60
2023-02-11T19:49:00.942Z,8.60
2023-02-11T19:52:03.905Z,8.60
2023-02-11T19:55:07.793Z,8.60
2023-02-11T19:58:12.152Z,8.60
2023-02-11T20:01:17.090Z,8.60
2023-02-11T20:04:20.715Z,8.60
2023-02-11T20:07:23.668Z,8.60
2023-02-11T20:10:26.692Z,8.50
2023-02-11T20:13:31.477Z,8.50
2023-02-11T20:16:47.410Z,8.60
2023-02-11T20:19:51.499Z,8.60
2023-02-11T20:22:54.473Z,8.60
2023-02-11T20:25:57.487Z,8.70
2023-02-11T20:29:03.129Z,8.60
2023-02-11T20:32:06.682Z,8.60
2023-02-11T20:35:10.830Z,8.60
2023-02-11T20:38:13.759Z,8.60
2023-02-11T20:41:18.361Z,8.60
2023-02-11T20:44:23.261Z,8.60
2023-02-11T20:47:26.264Z,8.60
2023-02-11T20:50:29.670Z,8.60
2023-02-11T20:53:34.773Z,8.60
2023-02-11T20:56:39.545Z,8.60
2023-02-11T20:59:43.838Z,8.60
2023-02-11T21:02:51.222Z,8.60
2023-02-11T21:05:59.378Z,8.60
2023-02-11T21:09:03.084Z,8.60
2023-02-11T21:12:07.413Z,8.60
2023-02-11T21:15:13.307Z,8.60
2023-02-11T21:18:16.238Z,8.60
2023-02-11T21:21:20.701Z,8.60
2023-02-11T21:24:23.740Z,8.60
2023-02-11T21:27:32.072Z,8.50
2023-02-11T21:30:38.737Z,8.60
2023-02-11T21:33:41.685Z,8.60
2023-02-11T21:36:45.178Z,8.60
2023-02-11T21:39:48.138Z,8.60
2023-02-11T21:42:51.034Z,8.60
2023-02-11T21:45:55.676Z,8.60
2023-02-11T21:49:00.287Z,8.60
2023-02-11T21:52:03.227Z,8.50
2023-02-11T21:55:06.992Z,8.60
2023-02-11T21:58:10.175Z,8.50
2023-02-11T22:01:16.888Z,8.50
2023-02-11T22:04:19.884Z,8.40
2023-02-11T22:07:23.434Z,8.40
2023-02-11T22:10:26.366Z,8.40
2023-02-11T22:13:29.285Z,8.40
2023-02-11T22:16:33.603Z,8.40
2023-02-11T22:19:36.618Z,8.40
2023-02-11T22:22:39.540Z,8.40
2023-02-11T22:25:42.494Z,8.40
2023-02-11T22:28:46.184Z,8.40
2023-02-11T22:31:50.549Z,8.40
2023-02-11T22:34:53.694Z,8.30
2023-02-11T22:37:56.625Z,8.30
2023-02-11T22:41:01.223Z,8.30
2023-02-11T22:44:04.154Z,8.30
2023-02-11T22:47:08.453Z,8.20
2023-02-11T22:50:12.033Z,8.20
2023-02-11T22:53:14.956Z,8.20
2023-02-11T22:56:18.400Z,8.20
2023-02-11T22:59:21.944Z,8.10
2023-02-11T23:02:26.296Z,8.10
2023-02-11T23:05:29.280Z,8.10
2023-02-11T23:08:33.582Z,8.10
2023-02-11T23:11:36.958Z,8.10
2023-02-11T23:14:39.922Z,8.10
2023-02-11T23:17:44.237Z,8.10
2023-02-11T23:20:47.212Z,8.10
2023-02-11T23:23:55.042Z,8.20
2023-02-11T23:26:58.020Z,8.10
2023-02-11T23:30:01.160Z,8.10
2023-02-11T23:33:05.559Z,8.10
2023-02-11T23:36:09.466Z,8.10
2023-02-11T23:39:15.577Z,8.10
2023-02-11T23:42:18.547Z,8.10
2023-02-11T23:45:22.583Z,8.10
2023-02-11T23:48:27.036Z,8.10
2023-02-11T23:51:29.994Z,8.10
2023-02-11T23:54:33.113Z,8.10
2023-02-11T23:57:36.563Z,8.10
